Time;durP1;ratioP1;P1;durP2;ratioP2;P2;SDS_P1;SDS_P2;PMS_P1;PMS_P2;Temp;Humidity;BMP_temperature;BMP_pressure;BME280_temperature;BME280_humidity;BME280_pressure;Samples;Min_cycle;Max_cycle;Signal;HPM_P1;HPM_P2
2023/02/15 00:01:10;;;;;;;4.00;1.98;;;3.00;90.90;;;;;;5095669;28;20044;-73
2023/02/15 00:03:36;;;;;;;3.70;1.80;;;3.00;90.90;;;;;;5095693;28;20401;-73
2023/02/15 00:06:03;;;;;;;3.85;1.75;;;2.90;90.90;;;;;;5095828;28;20047;-73
2023/02/15 00:08:29;;;;;;;2.85;1.48;;;2.90;90.90;;;;;;5095600;28;20153;-73
2023/02/15 00:11:05;;;;;;;3.53;1.90;;;2.90;90.90;;;;;;5095621;28;20567;-73
2023/02/15 00:13:30;;;;;;;3.78;1.75;;;2.90;90.90;;;;;;5114290;28;20410;-73
2023/02/15 00:16:01;;;;;;;3.08;1.55;;;2.90;91.00;;;;;;5094273;28;20059;-73
2023/02/15 00:18:27;;;;;;;2.75;1.40;;;2.90;90.90;;;;;;5095373;28;20039;-73
2023/02/15 00:20:53;;;;;;;2.63;1.42;;;2.90;90.90;;;;;;5095514;28;20050;-73
2023/02/15 00:23:18;;;;;;;2.90;1.40;;;2.90;90.90;;;;;;5113617;28;20118;-74
2023/02/15 00:25:44;;;;;;;2.20;1.58;;;2.80;90.90;;;;;;5078204;28;20487;-73
2023/02/15 00:28:09;;;;;;;3.10;1.45;;;2.80;90.90;;;;;;5113298;28;20043;-74
2023/02/15 00:30:35;;;;;;;2.35;1.48;;;2.70;90.90;;;;;;5113406;28;20049;-73
2023/02/15 00:33:01;;;;;;;2.45;1.38;;;2.70;91.00;;;;;;5078119;28;20043;-73
2023/02/15 00:35:26;;;;;;;2.65;1.30;;;2.70;91.00;;;;;;5113457;28;20039;-73
2023/02/15 00:37:52;;;;;;;1.95;1.20;;;2.70;91.00;;;;;;5095577;28;20092;-73
2023/02/15 00:40:18;;;;;;;3.10;1.63;;;2.60;91.00;;;;;;5094880;28;20082;-73
2023/02/15 00:42:44;;;;;;;2.92;1.42;;;2.60;91.00;;;;;;5113383;28;20043;-73
2023/02/15 00:45:09;;;;;;;2.83;1.55;;;2.60;91.10;;;;;;5113153;28;20031;-73
2023/02/15 00:47:35;;;;;;;3.00;1.58;;;2.60;91.00;;;;;;5095222;28;20044;-73
2023/02/15 00:50:02;;;;;;;3.05;1.40;;;2.60;91.00;;;;;;5113155;28;20027;-73
2023/02/15 00:52:28;;;;;;;2.92;1.55;;;2.70;91.00;;;;;;5078221;28;20420;-73
2023/02/15 00:54:54;;;;;;;1.80;1.15;;;2.50;91.00;;;;;;5094866;28;20080;-73
2023/02/15 00:57:19;;;;;;;2.75;1.45;;;2.50;91.00;;;;;;5094901;28;20120;-73
2023/02/15 00:59:45;;;;;;;2.85;1.58;;;2.50;91.10;;;;;;5113245;28;20074;-73
2023/02/15 01:02:10;;;;;;;3.42;1.50;;;2.60;91.10;;;;;;5095140;28;20043;-73
2023/02/15 01:04:36;;;;;;;2.75;1.35;;;2.60;91.10;;;;;;5112533;28;20035;-73
2023/02/15 01:07:03;;;;;;;2.88;1.45;;;2.60;91.00;;;;;;5112637;28;20050;-73
2023/02/15 01:09:29;;;;;;;3.53;1.70;;;2.60;91.00;;;;;;5112902;28;20044;-73
2023/02/15 01:11:54;;;;;;;2.85;1.45;;;2.60;91.00;;;;;;5112900;28;20474;-73
2023/02/15 01:14:20;;;;;;;2.75;1.45;;;2.60;91.00;;;;;;5094140;28;20039;-74
2023/02/15 01:16:45;;;;;;;1.92;1.10;;;2.50;91.00;;;;;;5112495;28;20519;-74
2023/02/15 01:19:12;;;;;;;2.05;1.48;;;2.50;91.00;;;;;;5112848;28;20046;-74
2023/02/15 01:21:37;;;;;;;1.95;1.17;;;2.40;91.00;;;;;;5094049;28;20401;-73
2023/02/15 01:24:03;;;;;;;3.40;1.88;;;2.30;91.00;;;;;;5112290;28;20117;-74
2023/02/15 01:26:29;;;;;;;2.80;1.50;;;2.40;91.10;;;;;;5114431;28;20093;-73
2023/02/15 01:28:55;;;;;;;1.92;1.30;;;2.40;91.20;;;;;;5116608;28;20046;-74
2023/02/15 01:31:21;;;;;;;2.88;1.55;;;2.40;91.20;;;;;;5116127;28;20035;-73
2023/02/15 01:33:47;;;;;;;2.90;1.50;;;2.40;91.20;;;;;;5116508;28;20047;-74
2023/02/15 01:36:14;;;;;;;4.05;1.80;;;2.40;91.10;;;;;;5097884;28;20092;-73
2023/02/15 01:38:40;;;;;;;2.83;1.50;;;2.40;91.10;;;;;;5116514;28;20197;-73
2023/02/15 01:41:22;;;;;;;3.28;1.58;;;2.40;91.10;;;;;;5097655;28;20082;-73
2023/02/15 01:43:57;;;;;;;2.78;1.67;;;2.40;91.10;;;;;;5115936;28;20048;-73
2023/02/15 01:46:32;;;;;;;3.08;1.48;;;2.30;91.10;;;;;;5081845;28;20177;-74
2023/02/15 01:49:09;;;;;;;2.30;1.08;;;2.30;91.20;;;;;;5116230;28;20423;-73
2023/02/15 01:51:40;;;;;;;2.15;1.33;;;2.20;91.20;;;;;;5115158;28;20384;-73
2023/02/15 01:54:15;;;;;;;2.97;1.33;;;2.20;91.20;;;;;;5097497;28;20039;-74
2023/02/15 01:56:41;;;;;;;2.17;1.20;;;2.20;91.20;;;;;;5080246;28;20641;-73
2023/02/15 01:59:14;;;;;;;2.17;1.20;;;2.20;91.20;;;;;;5115523;28;20043;-74
2023/02/15 02:01:40;;;;;;;2.20;1.13;;;2.20;91.20;;;;;;5115985;28;20521;-73
2023/02/15 02:04:20;;;;;;;3.83;1.60;;;2.20;91.10;;;;;;5116052;28;20067;-73
2023/02/15 02:06:49;;;;;;;3.53;1.75;;;2.20;91.20;;;;;;5115884;28;20484;-73
2023/02/15 02:09:14;;;;;;;2.95;1.20;;;2.20;91.20;;;;;;5080642;28;20389;-73
2023/02/15 02:11:41;;;;;;;3.30;1.30;;;2.20;91.20;;;;;;5097693;28;20035;-74
2023/02/15 02:14:07;;;;;;;2.20;1.20;;;2.20;91.20;;;;;;5063697;28;20035;-73
2023/02/15 02:16:52;;;;;;;2.08;1.25;;;2.10;91.20;;;;;;5080366;28;20035;-73
2023/02/15 02:19:51;;;;;;;1.60;1.00;;;2.10;91.20;;;;;;5113373;28;20050;-73
2023/02/15 02:22:51;;;;;;;2.20;1.10;;;2.10;91.20;;;;;;5100005;28;20061;-73
2023/02/15 02:25:42;;;;;;;1.73;1.02;;;2.10;91.20;;;;;;5115156;28;20043;-73
2023/02/15 02:28:47;;;;;;;1.60;0.90;;;2.10;91.20;;;;;;5096794;28;20142;-73
2023/02/15 02:31:43;;;;;;;2.05;0.88;;;2.00;91.20;;;;;;5103483;28;20046;-73
2023/02/15 02:34:29;;;;;;;2.25;1.20;;;2.00;91.20;;;;;;5095904;28;20039;-73
2023/02/15 02:37:10;;;;;;;1.38;1.08;;;2.00;91.20;;;;;;5113722;28;20038;-73
2023/02/15 02:39:53;;;;;;;3.05;1.20;;;2.00;91.20;;;;;;5114989;28;20043;-73
2023/02/15 02:42:32;;;;;;;1.65;1.00;;;2.00;91.10;;;;;;5115213;28;20044;-73
2023/02/15 02:45:08;;;;;;;1.80;1.00;;;2.00;91.20;;;;;;5096639;28;20043;-73
2023/02/15 02:47:43;;;;;;;1.67;0.90;;;1.90;91.20;;;;;;5114614;28;20127;-73
2023/02/15 02:50:15;;;;;;;2.72;1.10;;;1.90;91.20;;;;;;5114971;28;20039;-73
2023/02/15 02:52:47;;;;;;;1.27;0.95;;;1.90;91.20;;;;;;5114985;28;20110;-73
2023/02/15 02:55:20;;;;;;;2.10;1.23;;;1.90;91.30;;;;;;5114854;28;20040;-73
2023/02/15 02:57:53;;;;;;;2.03;1.10;;;1.90;91.30;;;;;;5114642;28;20524;-73
2023/02/15 03:00:21;;;;;;;2.75;1.30;;;1.80;91.30;;;;;;5095989;28;20393;-73
2023/02/15 03:02:50;;;;;;;2.05;1.23;;;1.90;91.30;;;;;;5096406;28;20054;-73
2023/02/15 03:05:21;;;;;;;2.58;1.13;;;1.90;91.30;;;;;;5096239;28;20043;-73
2023/02/15 03:07:50;;;;;;;2.00;1.08;;;1.90;91.30;;;;;;5114358;28;20485;-73
2023/02/15 03:10:20;;;;;;;1.95;1.02;;;1.80;91.20;;;;;;5114890;28;20061;-73
2023/02/15 03:12:46;;;;;;;2.40;1.17;;;1.90;91.30;;;;;;5114425;28;20473;-73
2023/02/15 03:15:20;;;;;;;3.03;1.50;;;1.80;91.30;;;;;;5114456;28;20039;-73
2023/02/15 03:17:52;;;;;;;2.67;1.38;;;1.80;91.30;;;;;;5095875;28;20044;-73
2023/02/15 03:20:25;;;;;;;2.83;1.23;;;1.80;91.30;;;;;;5095650;28;20035;-73
2023/02/15 03:22:58;;;;;;;2.22;1.10;;;1.80;91.30;;;;;;5079493;28;20063;-73
2023/02/15 03:25:27;;;;;;;1.42;0.98;;;1.80;91.30;;;;;;5114729;28;20389;-74
2023/02/15 03:27:59;;;;;;;2.13;1.20;;;1.80;91.30;;;;;;5114275;28;20048;-74
2023/02/15 03:30:27;;;;;;;1.85;1.02;;;1.70;91.30;;;;;;5096654;28;20040;-73
2023/02/15 03:32:53;;;;;;;1.92;1.20;;;1.70;91.30;;;;;;5113971;28;20040;-74
2023/02/15 03:35:25;;;;;;;1.85;1.13;;;1.70;91.30;;;;;;5096411;28;20040;-73
2023/02/15 03:37:57;;;;;;;2.47;1.20;;;1.70;91.30;;;;;;5079055;28;20475;-74
2023/02/15 03:43:31;;;;;;;2.03;1.17;;;1.80;91.30;;;;;;5113805;28;20051;-73
2023/02/15 03:46:05;;;;;;;1.88;1.00;;;1.80;91.30;;;;;;5113987;28;20043;-73
2023/02/15 03:48:38;;;;;;;2.35;1.30;;;1.70;91.30;;;;;;5095382;28;20048;-73
2023/02/15 03:53:49;;;;;;;2.70;1.33;;;1.70;91.30;;;;;;5113799;28;20042;-74
2023/02/15 03:56:14;;;;;;;1.52;1.00;;;1.70;91.30;;;;;;5114481;28;20039;-73
2023/02/15 04:04:17;;;;;;;1.95;1.10;;;1.60;91.30;;;;;;5113669;28;20142;-73
2023/02/15 04:06:43;;;;;;;1.98;1.10;;;1.70;91.30;;;;;;5095987;28;20050;-73
2023/02/15 04:11:48;;;;;;;1.80;1.10;;;1.60;91.30;;;;;;5113573;28;20401;-73
2023/02/15 04:16:58;;;;;;;2.10;1.20;;;1.60;91.30;;;;;;5113359;28;20528;-73
2023/02/15 04:27:29;;;;;;;2.65;1.27;;;1.50;91.40;;;;;;5097319;28;20051;-73
2023/02/15 04:29:55;;;;;;;2.85;1.27;;;1.50;91.40;;;;;;5113075;28;20040;-73
2023/02/15 04:32:20;;;;;;;2.08;1.15;;;1.50;91.40;;;;;;5078126;28;20071;-73
2023/02/15 04:34:46;;;;;;;2.47;0.95;;;1.60;91.40;;;;;;5113414;28;20393;-74
2023/02/15 04:37:11;;;;;;;1.83;1.08;;;1.50;91.40;;;;;;5113474;28;20036;-73
2023/02/15 04:39:37;;;;;;;1.38;0.90;;;1.50;91.40;;;;;;5112903;28;20063;-73
2023/02/15 04:42:03;;;;;;;2.45;1.10;;;1.50;91.40;;;;;;5112969;28;20484;-74
2023/02/15 04:44:28;;;;;;;1.73;0.98;;;1.50;91.40;;;;;;5113038;28;20047;-73
2023/02/15 04:46:54;;;;;;;1.80;1.02;;;1.40;91.40;;;;;;5113272;28;20043;-73
2023/02/15 04:49:20;;;;;;;1.95;1.00;;;1.40;91.40;;;;;;5094578;28;20039;-73
2023/02/15 04:51:45;;;;;;;1.45;1.00;;;1.40;91.50;;;;;;5112932;28;20439;-73
2023/02/15 04:54:11;;;;;;;1.58;1.05;;;1.30;91.50;;;;;;5094965;28;20040;-74
2023/02/15 04:56:38;;;;;;;1.67;0.98;;;1.30;91.50;;;;;;5094544;28;20097;-74
2023/02/15 04:59:04;;;;;;;1.02;0.82;;;1.30;91.80;;;;;;5112815;28;20062;-73
2023/02/15 05:01:30;;;;;;;2.10;1.02;;;1.30;91.50;;;;;;5077377;28;20039;-74
2023/02/15 05:03:56;;;;;;;2.17;1.00;;;1.20;91.50;;;;;;5113075;28;20043;-73
2023/02/15 05:06:22;;;;;;;1.48;0.95;;;1.20;91.50;;;;;;5061499;28;20039;-73
2023/02/15 05:08:48;;;;;;;2.45;1.20;;;1.20;91.60;;;;;;5112865;28;20375;-73
2023/02/15 05:11:13;;;;;;;1.77;1.00;;;1.20;91.60;;;;;;5094672;28;20039;-73
2023/02/15 05:13:39;;;;;;;1.67;0.90;;;1.10;91.60;;;;;;5113486;28;20036;-74
2023/02/15 05:16:05;;;;;;;1.95;1.00;;;1.20;91.60;;;;;;5112987;28;20027;-74
2023/02/15 05:18:30;;;;;;;2.75;1.20;;;1.20;91.60;;;;;;5094805;28;20204;-74
2023/02/15 05:20:56;;;;;;;2.05;1.00;;;1.20;91.60;;;;;;5112861;28;20374;-73
2023/02/15 05:23:22;;;;;;;2.10;0.90;;;1.20;91.60;;;;;;5112855;28;20039;-73
2023/02/15 05:28:27;;;;;;;1.80;1.00;;;1.20;91.50;;;;;;5112493;28;20075;-73
2023/02/15 05:31:12;;;;;;;1.60;0.93;;;1.20;91.50;;;;;;5113370;28;20063;-73
2023/02/15 05:33:38;;;;;;;1.60;0.90;;;1.20;91.50;;;;;;5110696;28;20064;-73
2023/02/15 05:36:04;;;;;;;2.55;1.08;;;1.20;91.50;;;;;;5094575;28;20039;-73
2023/02/15 05:38:30;;;;;;;2.22;1.15;;;1.20;91.50;;;;;;5113124;28;20078;-73
2023/02/15 05:40:56;;;;;;;1.63;0.93;;;1.20;91.50;;;;;;5094257;28;20071;-74
2023/02/15 05:43:21;;;;;;;1.65;1.00;;;1.20;91.50;;;;;;5112565;28;20043;-73
2023/02/15 05:45:49;;;;;;;2.47;1.00;;;1.20;91.50;;;;;;5112494;28;20967;-74
2023/02/15 05:48:15;;;;;;;1.73;0.90;;;1.20;91.50;;;;;;5094464;28;20044;-73
2023/02/15 05:50:41;;;;;;;1.20;0.70;;;1.10;91.50;;;;;;5094171;28;20043;-73
2023/02/15 05:53:07;;;;;;;2.20;1.15;;;1.10;91.50;;;;;;5112457;28;20108;-73
2023/02/15 05:55:33;;;;;;;1.65;1.05;;;1.10;91.50;;;;;;5112472;28;20044;-73
2023/02/15 05:57:58;;;;;;;1.90;1.00;;;1.10;91.50;;;;;;5094145;28;20047;-73
2023/02/15 06:00:25;;;;;;;1.55;0.95;;;1.00;91.50;;;;;;5112307;28;20039;-73
2023/02/15 06:02:50;;;;;;;1.38;0.90;;;1.00;91.60;;;;;;5112087;28;20036;-73
2023/02/15 06:05:16;;;;;;;2.53;1.20;;;1.00;91.60;;;;;;5112136;28;20054;-73
2023/02/15 06:07:44;;;;;;;2.05;1.17;;;1.00;91.60;;;;;;5111974;28;20043;-73
2023/02/15 06:10:10;;;;;;;2.20;1.10;;;1.00;91.60;;;;;;5112036;28;20052;-73
2023/02/15 06:12:36;;;;;;;2.78;1.17;;;1.00;91.60;;;;;;5095509;28;20451;-73
2023/02/15 06:15:02;;;;;;;1.70;0.95;;;1.00;91.60;;;;;;5097421;28;20043;-73
2023/02/15 06:17:28;;;;;;;1.50;0.95;;;1.00;91.60;;;;;;5115487;28;20043;-73
2023/02/15 06:19:53;;;;;;;2.92;1.17;;;1.00;91.60;;;;;;5115443;28;20489;-73
2023/02/15 06:22:20;;;;;;;2.80;1.45;;;1.00;91.60;;;;;;5097434;28;20032;-73
2023/02/15 06:24:46;;;;;;;2.42;1.00;;;1.00;91.60;;;;;;5097879;28;20048;-73
2023/02/15 06:27:11;;;;;;;1.13;0.75;;;1.00;91.60;;;;;;5080164;28;20115;-73
2023/02/15 06:29:37;;;;;;;2.83;0.90;;;1.00;91.60;;;;;;5097392;28;20137;-73
2023/02/15 06:32:03;;;;;;;1.08;0.80;;;1.00;91.60;;;;;;5115395;28;20044;-73
2023/02/15 06:34:29;;;;;;;1.83;1.10;;;0.90;91.60;;;;;;5097020;28;20355;-73
2023/02/15 06:36:55;;;;;;;2.38;1.10;;;0.90;91.60;;;;;;5115252;28;20044;-73
2023/02/15 06:39:20;;;;;;;1.65;1.10;;;0.90;91.60;;;;;;5115266;28;20397;-73
2023/02/15 06:41:46;;;;;;;1.58;0.90;;;0.90;91.60;;;;;;5115234;28;20472;-73
2023/02/15 06:44:11;;;;;;;2.60;1.10;;;0.90;91.60;;;;;;5097464;28;20032;-74
2023/02/15 06:46:37;;;;;;;1.58;0.90;;;0.90;91.60;;;;;;5115590;28;20430;-73
2023/02/15 06:49:03;;;;;;;2.45;1.15;;;0.90;91.60;;;;;;5079991;28;20131;-73
2023/02/15 06:51:28;;;;;;;2.03;1.02;;;0.90;91.60;;;;;;5096840;28;20058;-73
2023/02/15 06:53:54;;;;;;;2.50;1.33;;;1.00;91.60;;;;;;5115658;28;20031;-73
2023/02/15 06:56:19;;;;;;;1.67;1.00;;;0.90;91.60;;;;;;5115744;28;20035;-73
2023/02/15 06:58:45;;;;;;;2.28;1.00;;;0.90;91.60;;;;;;5063310;28;20046;-73
2023/02/15 07:01:12;;;;;;;1.20;0.70;;;0.90;91.60;;;;;;5080087;28;20050;-73
2023/02/15 07:03:38;;;;;;;1.90;1.13;;;0.90;91.50;;;;;;5114951;28;20036;-73
2023/02/15 07:06:07;;;;;;;2.53;1.20;;;0.90;91.50;;;;;;5063110;28;20392;-72
2023/02/15 07:08:34;;;;;;;2.47;1.10;;;0.90;91.60;;;;;;5114807;28;20071;-73
2023/02/15 07:12:41;;;;;;;1.80;1.17;;;0.90;91.60;;;;;;5115341;28;20418;-73
2023/02/15 07:13:46;;;;;;;2.42;1.10;;;1.00;91.60;;;;;;5098953;28;20516;-73
2023/02/15 07:16:12;;;;;;;1.55;1.10;;;1.00;91.60;;;;;;5114544;28;20558;-73
2023/02/15 07:18:39;;;;;;;1.77;1.00;;;1.00;91.60;;;;;;5096328;28;20512;-73
2023/02/15 07:21:07;;;;;;;1.75;0.90;;;1.00;91.80;;;;;;5114534;28;20132;-73
2023/02/15 07:23:38;;;;;;;2.10;1.00;;;1.00;91.50;;;;;;5113649;28;20520;-73
2023/02/15 07:26:05;;;;;;;3.27;1.37;;;1.00;91.50;;;;;;5115103;28;20074;-73
2023/02/15 07:28:32;;;;;;;2.47;1.05;;;1.00;91.50;;;;;;5114822;28;20043;-73
2023/02/15 07:31:00;;;;;;;2.47;1.08;;;1.00;91.50;;;;;;5079484;28;20035;-73
2023/02/15 07:33:26;;;;;;;2.15;1.10;;;1.10;91.50;;;;;;5114916;28;20098;-73
2023/02/15 07:35:57;;;;;;;2.35;1.10;;;1.10;91.50;;;;;;5079505;28;20039;-73
2023/02/15 07:38:25;;;;;;;2.17;1.08;;;1.20;91.50;;;;;;5112933;28;20485;-73
2023/02/15 07:40:51;;;;;;;2.63;1.20;;;1.20;91.50;;;;;;5096581;28;20047;-73
2023/02/15 07:43:17;;;;;;;2.70;1.10;;;1.20;91.50;;;;;;5096005;28;20400;-73
2023/02/15 07:45:43;;;;;;;2.60;1.13;;;1.30;91.40;;;;;;5095952;28;20051;-73
2023/02/15 07:48:09;;;;;;;2.10;1.13;;;1.40;91.40;;;;;;5114182;28;20502;-73
2023/02/15 07:50:35;;;;;;;2.72;1.40;;;1.40;91.40;;;;;;5114183;28;20370;-73
2023/02/15 07:53:02;;;;;;;2.55;1.55;;;1.40;91.30;;;;;;5113898;28;20417;-74
2023/02/15 07:55:28;;;;;;;3.42;1.40;;;1.50;91.30;;;;;;5078877;28;20485;-74
2023/02/15 07:57:54;;;;;;;2.10;1.20;;;1.60;91.30;;;;;;5095715;28;20074;-74
2023/02/15 08:00:24;;;;;;;3.67;1.48;;;1.50;91.30;;;;;;5078736;28;20032;-74
2023/02/15 08:03:26;;;;;;;2.22;1.23;;;1.70;91.20;;;;;;5063139;28;20028;-73
2023/02/15 08:05:40;;;;;;;3.22;1.50;;;1.80;91.20;;;;;;5113673;28;20101;-74
2023/02/15 08:08:07;;;;;;;2.95;1.40;;;2.00;91.20;;;;;;5078525;28;20031;-74
2023/02/15 08:13:17;;;;;;;2.03;1.20;;;2.00;91.10;;;;;;5098053;28;20054;-73
2023/02/15 08:15:50;;;;;;;2.67;1.40;;;2.20;91.00;;;;;;5095773;28;20031;-72
2023/02/15 08:18:16;;;;;;;2.85;1.33;;;2.20;91.00;;;;;;5094509;28;20538;-72
2023/02/15 08:20:42;;;;;;;2.88;1.48;;;2.40;90.90;;;;;;5095574;28;20044;-73
2023/02/15 08:23:08;;;;;;;3.10;1.30;;;2.40;90.90;;;;;;5113466;28;20043;-72
2023/02/15 08:25:33;;;;;;;3.03;1.48;;;2.50;90.90;;;;;;5113559;28;20408;-73
2023/02/15 08:27:59;;;;;;;2.55;1.45;;;2.60;90.80;;;;;;5094895;28;20041;-74
2023/02/15 08:30:24;;;;;;;2.97;1.20;;;2.60;90.80;;;;;;5113327;28;20048;-73
2023/02/15 08:32:50;;;;;;;3.13;1.42;;;2.70;90.70;;;;;;5113483;28;20036;-73
2023/02/15 08:35:16;;;;;;;2.58;1.42;;;2.80;90.70;;;;;;5113021;28;20046;-73
2023/02/15 08:37:41;;;;;;;2.30;1.30;;;2.80;90.70;;;;;;5113610;28;20390;-73
2023/02/15 08:40:08;;;;;;;3.72;1.38;;;2.90;90.70;;;;;;5095150;28;20047;-73
2023/02/15 08:42:34;;;;;;;3.78;1.73;;;3.00;90.60;;;;;;5113124;28;20054;-73
2023/02/15 08:44:59;;;;;;;3.40;1.70;;;3.00;90.60;;;;;;5095500;28;20043;-73
2023/02/15 08:47:25;;;;;;;3.67;2.00;;;3.10;90.60;;;;;;5094896;28;20508;-73
2023/02/15 08:49:51;;;;;;;3.55;1.63;;;3.10;90.60;;;;;;5094595;28;20059;-73
2023/02/15 08:52:17;;;;;;;4.35;1.92;;;3.20;90.60;;;;;;5113297;28;20036;-73
2023/02/15 08:54:43;;;;;;;3.88;1.70;;;3.30;90.60;;;;;;5094612;28;20036;-73
2023/02/15 08:57:10;;;;;;;4.82;1.80;;;3.40;90.50;;;;;;5077908;28;20393;-74
2023/02/15 08:59:35;;;;;;;3.03;1.45;;;3.50;90.50;;;;;;5113329;28;20105;-73
2023/02/15 09:02:02;;;;;;;4.35;1.65;;;3.50;90.40;;;;;;5112838;28;20055;-73
2023/02/15 09:04:28;;;;;;;3.47;1.83;;;3.60;90.40;;;;;;5113380;28;20051;-73
2023/02/15 09:06:54;;;;;;;2.53;1.35;;;3.60;90.40;;;;;;5113212;28;20073;-73
2023/02/15 09:09:21;;;;;;;2.92;1.50;;;3.70;90.40;;;;;;5113144;28;20075;-73
2023/02/15 09:11:49;;;;;;;5.07;1.63;;;3.80;90.40;;;;;;5095267;28;20069;-73
2023/02/15 09:14:19;;;;;;;3.40;1.50;;;3.90;90.30;;;;;;5113214;28;20044;-73
2023/02/15 09:16:48;;;;;;;3.80;1.58;;;4.00;90.30;;;;;;5113228;28;20035;-73
2023/02/15 09:19:14;;;;;;;3.95;1.85;;;4.00;90.30;;;;;;5078333;28;20031;-73
2023/02/15 09:21:40;;;;;;;4.47;2.15;;;4.20;90.30;;;;;;5113212;28;20093;-73
2023/02/15 09:24:09;;;;;;;3.08;1.65;;;4.20;90.20;;;;;;5094454;28;20513;-74
2023/02/15 09:26:37;;;;;;;3.70;1.83;;;4.30;90.20;;;;;;5112646;28;20062;-74
2023/02/15 09:29:03;;;;;;;3.08;1.65;;;4.40;90.20;;;;;;5093013;28;20118;-73
2023/02/15 09:31:37;;;;;;;5.40;2.40;;;4.50;90.10;;;;;;5094566;28;20538;-73
2023/02/15 09:34:03;;;;;;;3.78;1.80;;;4.50;90.10;;;;;;5110881;28;20105;-73
2023/02/15 09:36:36;;;;;;;3.58;2.13;;;4.60;90.00;;;;;;5095091;28;20036;-73
2023/02/15 09:39:13;;;;;;;3.42;1.77;;;4.70;90.00;;;;;;5112551;28;20110;-74
2023/02/15 09:42:10;;;;;;;3.50;1.65;;;4.70;90.00;;;;;;5077694;28;20498;-73
2023/02/15 09:44:57;;;;;;;2.90;1.60;;;4.80;89.90;;;;;;5092568;28;20116;-74
2023/02/15 09:47:53;;;;;;;4.97;2.30;;;4.90;90.20;;;;;;5096657;28;20044;-72
2023/02/15 09:50:48;;;;;;;4.15;1.80;;;5.00;90.00;;;;;;5098978;28;20071;-73
2023/02/15 09:53:52;;;;;;;3.30;1.77;;;5.10;90.00;;;;;;5097170;28;20044;-73
2023/02/15 09:56:38;;;;;;;3.28;1.55;;;5.20;89.90;;;;;;5114153;28;20055;-74
2023/02/15 09:59:34;;;;;;;3.40;1.65;;;5.30;89.90;;;;;;5114609;28;20050;-74
2023/02/15 10:02:18;;;;;;;2.67;1.55;;;5.40;89.80;;;;;;5115852;28;20035;-74
2023/02/15 10:05:11;;;;;;;2.92;1.40;;;5.40;89.60;;;;;;5116253;28;20055;-73
2023/02/15 10:08:06;;;;;;;1.55;1.00;;;5.50;89.70;;;;;;5097469;28;20039;-74
2023/02/15 10:14:14;;;;;;;3.67;1.73;;;5.60;89.40;;;;;;5088090;28;20044;-74
2023/02/15 10:16:56;;;;;;;2.83;1.55;;;5.80;89.40;;;;;;5114286;28;20054;-74
2023/02/15 10:19:52;;;;;;;3.83;2.05;;;5.90;89.30;;;;;;5081632;28;20040;-74
2023/02/15 10:22:38;;;;;;;2.35;1.50;;;5.90;89.30;;;;;;5100239;28;20032;-74
2023/02/15 10:25:25;;;;;;;4.15;2.15;;;6.10;89.20;;;;;;5081791;28;20565;-73
2023/02/15 10:27:51;;;;;;;4.05;1.90;;;6.10;89.10;;;;;;5078098;28;20039;-74
2023/02/15 10:30:29;;;;;;;3.97;2.03;;;6.30;89.10;;;;;;5115877;28;20481;-74
2023/02/15 10:33:01;;;;;;;2.70;1.50;;;6.30;89.00;;;;;;5115278;28;20047;-73
2023/02/15 10:35:47;;;;;;;3.50;1.90;;;6.40;88.90;;;;;;5097166;28;20067;-73
2023/02/15 10:38:32;;;;;;;2.92;1.83;;;6.50;88.80;;;;;;5097998;28;20051;-74
2023/02/15 10:41:12;;;;;;;3.92;2.10;;;6.60;88.60;;;;;;5113966;28;20040;-73
2023/02/15 10:43:57;;;;;;;3.80;2.10;;;6.70;88.50;;;;;;5115285;28;20046;-73
2023/02/15 10:46:47;;;;;;;3.30;1.85;;;6.80;88.40;;;;;;5082550;28;20101;-74
2023/02/15 10:49:36;;;;;;;2.60;1.48;;;6.90;88.30;;;;;;5095497;28;20497;-74
2023/02/15 10:52:18;;;;;;;4.15;1.80;;;7.00;88.20;;;;;;5114319;28;20058;-73
2023/02/15 10:55:05;;;;;;;3.13;1.83;;;7.10;88.10;;;;;;5080089;28;20028;-73
2023/02/15 10:57:53;;;;;;;4.45;2.38;;;7.20;88.00;;;;;;5114974;28;20039;-73
2023/02/15 11:01:00;;;;;;;5.32;2.72;;;7.40;87.90;;;;;;5113942;28;20063;-74
2023/02/15 11:03:43;;;;;;;7.07;3.85;;;7.50;87.60;;;;;;5096587;28;20088;-73
2023/02/15 11:06:13;;;;;;;6.18;3.58;;;7.70;87.30;;;;;;5096616;28;20044;-73
2023/02/15 11:08:44;;;;;;;7.47;3.78;;;7.80;86.90;;;;;;5080072;28;20535;-73
2023/02/15 11:11:19;;;;;;;7.40;3.40;;;7.90;87.40;;;;;;5080335;28;20043;-72
2023/02/15 11:13:50;;;;;;;6.30;3.45;;;8.00;86.70;;;;;;5095025;28;20101;-73
2023/02/15 11:16:22;;;;;;;8.43;3.97;;;8.10;86.60;;;;;;5114994;28;20039;-73
2023/02/15 11:19:01;;;;;;;7.85;3.83;;;8.20;86.40;;;;;;5115062;28;20446;-74
2023/02/15 11:21:32;;;;;;;6.43;3.33;;;8.30;86.40;;;;;;5094813;28;20052;-73
2023/02/15 11:24:00;;;;;;;6.07;3.35;;;8.30;86.10;;;;;;5114419;28;20043;-73
2023/02/15 11:26:45;;;;;;;6.57;3.90;;;8.40;86.00;;;;;;5096269;28;20412;-73
2023/02/15 11:29:31;;;;;;;8.07;3.83;;;8.60;85.90;;;;;;5114685;28;20040;-73
2023/02/15 11:32:02;;;;;;;7.20;3.60;;;8.70;85.80;;;;;;5093734;28;20040;-73
2023/02/15 11:34:37;;;;;;;7.20;3.83;;;8.70;85.60;;;;;;5112112;28;20118;-74
2023/02/15 11:37:17;;;;;;;6.97;4.03;;;8.80;85.60;;;;;;5114378;28;20073;-72
2023/02/15 11:39:44;;;;;;;6.85;3.28;;;8.90;85.40;;;;;;5114100;28;20043;-72
2023/02/15 11:42:14;;;;;;;6.20;3.70;;;8.90;85.30;;;;;;5114471;28;20051;-73
2023/02/15 11:45:16;;;;;;;6.37;3.63;;;9.00;85.20;;;;;;5114455;28;20036;-73
2023/02/15 11:47:42;;;;;;;6.25;3.47;;;9.10;85.80;;;;;;5095619;28;20036;-72
2023/02/15 11:50:21;;;;;;;6.03;3.08;;;9.20;85.00;;;;;;5114181;28;20048;-72
2023/02/15 11:52:48;;;;;;;7.05;3.67;;;9.40;84.80;;;;;;5080152;28;20393;-72
2023/02/15 11:55:19;;;;;;;6.13;3.28;;;9.50;84.80;;;;;;5095700;28;20054;-73
2023/02/15 11:57:52;;;;;;;5.55;3.00;;;9.50;84.60;;;;;;5111940;28;20036;-73
2023/02/15 12:00:35;;;;;;;4.68;2.75;;;9.60;84.50;;;;;;5114097;28;20047;-74
2023/02/15 12:03:13;;;;;;;5.95;3.30;;;9.70;84.30;;;;;;5095477;28;20089;-73
2023/02/15 12:05:41;;;;;;;5.78;3.22;;;9.70;84.30;;;;;;5078642;28;20036;-73
2023/02/15 12:08:18;;;;;;;5.60;3.20;;;9.70;84.30;;;;;;5114247;28;20047;-73
2023/02/15 12:10:57;;;;;;;6.47;3.22;;;9.80;84.30;;;;;;5095294;28;20127;-72
2023/02/15 12:13:23;;;;;;;5.53;3.25;;;9.90;84.20;;;;;;5094287;28;20047;-72
2023/02/15 12:15:51;;;;;;;6.47;3.95;;;10.00;83.90;;;;;;5096128;28;20043;-73
2023/02/15 12:18:32;;;;;;;6.50;3.75;;;10.10;83.80;;;;;;5114246;28;20123;-73
2023/02/15 12:21:02;;;;;;;6.18;3.40;;;10.20;83.60;;;;;;5113685;28;20104;-73
2023/02/15 12:23:29;;;;;;;6.72;3.80;;;10.30;83.50;;;;;;5095476;28;20059;-73
2023/02/15 12:25:56;;;;;;;6.20;4.05;;;10.40;83.30;;;;;;5078679;28;20066;-73
2023/02/15 12:28:34;;;;;;;7.25;4.22;;;10.50;83.20;;;;;;5113633;28;20039;-73
2023/02/15 12:31:06;;;;;;;6.22;3.67;;;10.60;83.00;;;;;;5113286;28;20481;-73
2023/02/15 12:33:41;;;;;;;7.93;3.90;;;10.80;83.00;;;;;;5113503;28;20103;-74
2023/02/15 12:36:17;;;;;;;6.72;4.03;;;10.80;82.70;;;;;;5095155;28;20039;-74
2023/02/15 12:38:42;;;;;;;6.25;3.50;;;10.90;82.50;;;;;;5113105;28;20044;-73
2023/02/15 12:41:25;;;;;;;6.55;3.72;;;11.00;82.40;;;;;;5095126;28;20131;-74
2023/02/15 12:44:07;;;;;;;7.30;3.70;;;11.10;82.30;;;;;;5112276;28;20507;-73
2023/02/15 12:46:33;;;;;;;;;;;11.10;82.10;;;;;;5114129;28;20458;-74
2023/02/15 12:49:17;;;;;;;7.18;3.75;;;11.10;82.10;;;;;;5113757;28;20016;-73
2023/02/15 12:51:46;;;;;;;6.63;3.95;;;11.30;82.10;;;;;;5093964;28;20039;-74
2023/02/15 12:54:34;;;;;;;7.25;4.15;;;11.30;81.80;;;;;;5095764;28;20393;-74
2023/02/15 12:57:14;;;;;;;6.65;3.75;;;11.30;81.60;;;;;;5113546;28;20100;-73
2023/02/15 13:00:00;;;;;;;6.90;3.83;;;11.40;81.60;;;;;;5111549;28;20123;-73
2023/02/15 13:02:45;;;;;;;6.50;3.53;;;11.50;81.50;;;;;;5094498;28;20096;-72
2023/02/15 13:05:30;;;;;;;6.90;4.20;;;11.60;81.50;;;;;;5113204;28;20105;-72
2023/02/15 13:07:59;;;;;;;6.93;3.90;;;11.60;81.30;;;;;;5079727;28;20043;-72
2023/02/15 13:10:33;;;;;;;7.80;4.18;;;11.70;81.30;;;;;;5094522;28;20047;-71
2023/02/15 13:13:02;;;;;;;6.45;3.58;;;11.80;81.20;;;;;;5112679;28;20104;-74
2023/02/15 13:15:36;;;;;;;5.95;3.55;;;11.80;81.10;;;;;;5094420;28;20045;-75
2023/02/15 13:18:04;;;;;;;6.25;3.58;;;11.90;81.10;;;;;;5112737;28;20039;-75
2023/02/15 13:20:31;;;;;;;7.40;3.80;;;12.00;81.10;;;;;;5112918;28;20036;-74
2023/02/15 13:23:04;;;;;;;7.63;4.05;;;11.80;81.10;;;;;;5093743;28;20126;-73
2023/02/15 13:25:50;;;;;;;6.78;3.58;;;11.80;81.20;;;;;;5111709;28;20035;-72
2023/02/15 13:28:18;;;;;;;5.65;3.65;;;11.80;81.20;;;;;;5095321;28;20042;-72
2023/02/15 13:30:47;;;;;;;6.47;3.58;;;11.80;81.20;;;;;;5094456;28;20106;-73
2023/02/15 13:33:26;;;;;;;5.45;3.15;;;11.90;81.20;;;;;;5094898;28;20042;-73
2023/02/15 13:36:09;;;;;;;6.47;3.20;;;11.90;81.20;;;;;;5113179;28;20070;-74
2023/02/15 13:38:46;;;;;;;6.47;3.38;;;11.90;81.20;;;;;;5094202;28;20040;-75
2023/02/15 13:41:19;;;;;;;5.32;2.95;;;12.00;81.20;;;;;;5094457;28;20043;-73
2023/02/15 13:43:59;;;;;;;5.45;3.33;;;12.10;81.20;;;;;;5111183;28;20039;-75
2023/02/15 13:46:42;;;;;;;5.40;3.22;;;12.10;81.00;;;;;;5094459;28;20047;-74
2023/02/15 13:49:24;;;;;;;6.05;3.47;;;12.10;80.90;;;;;;5111860;28;20103;-73
2023/02/15 13:52:11;;;;;;;5.78;3.17;;;12.20;80.90;;;;;;5112760;28;20050;-74